sensor_id;sensor_type;location;lat;lon;timestamp;pressure;altitude;pressure_sealevel;temperature;humidity
39449;BME280;25151;45.566;9.382;2023-02-19T00:00:37;100604.75;;;19.85;51.41
39449;BME280;25151;45.566;9.382;2023-02-19T00:03:41;100603.19;;;19.84;51.43
39449;BME280;25151;45.566;9.382;2023-02-19T00:06:44;100598.78;;;19.83;51.31
39449;BME280;25151;45.566;9.382;2023-02-19T00:09:47;100598.44;;;19.81;51.30
39449;BME280;25151;45.566;9.382;2023-02-19T00:12:49;100590.38;;;19.83;51.39
39449;BME280;25151;45.566;9.382;2023-02-19T00:15:52;100595.63;;;19.81;51.53
39449;BME280;25151;45.566;9.382;2023-02-19T00:18:55;100592.88;;;19.77;51.49
39449;BME280;25151;45.566;9.382;2023-02-19T00:21:58;100584.06;;;19.79;51.43
39449;BME280;25151;45.566;9.382;2023-02-19T00:25:00;100579.31;;;19.76;51.34
39449;BME280;25151;45.566;9.382;2023-02-19T00:28:03;100571.28;;;19.78;51.54
39449;BME280;25151;45.566;9.382;2023-02-19T00:31:17;100574.53;;;19.76;51.54
39449;BME280;25151;45.566;9.382;2023-02-19T00:34:19;100570.56;;;19.74;51.60
39449;BME280;25151;45.566;9.382;2023-02-19T00:37:21;100572.13;;;19.75;51.55
39449;BME280;25151;45.566;9.382;2023-02-19T00:40:24;100564.59;;;19.72;51.62
39449;BME280;25151;45.566;9.382;2023-02-19T00:43:27;100571.41;;;19.71;51.80
39449;BME280;25151;45.566;9.382;2023-02-19T00:46:34;100568.97;;;19.73;51.54
39449;BME280;25151;45.566;9.382;2023-02-19T00:49:36;100565.81;;;19.71;51.71
39449;BME280;25151;45.566;9.382;2023-02-19T00:52:39;100565.81;;;19.71;51.61
39449;BME280;25151;45.566;9.382;2023-02-19T00:55:41;100563.00;;;19.71;51.68
39449;BME280;25151;45.566;9.382;2023-02-19T00:58:43;100561.06;;;19.68;51.66
39449;BME280;25151;45.566;9.382;2023-02-19T01:01:44;100553.88;;;19.67;51.70
39449;BME280;25151;45.566;9.382;2023-02-19T01:04:47;100555.47;;;19.68;51.52
39449;BME280;25151;45.566;9.382;2023-02-19T01:07:49;100557.06;;;19.69;51.62
39449;BME280;25151;45.566;9.382;2023-02-19T01:10:51;100556.69;;;19.67;51.67
39449;BME280;25151;45.566;9.382;2023-02-19T01:13:57;100555.09;;;19.65;51.73
39449;BME280;25151;45.566;9.382;2023-02-19T01:16:59;100550.34;;;19.62;51.74
39449;BME280;25151;45.566;9.382;2023-02-19T01:20:01;100551.13;;;19.63;51.76
39449;BME280;25151;45.566;9.382;2023-02-19T01:23:04;100549.13;;;19.63;51.62
39449;BME280;25151;45.566;9.382;2023-02-19T01:26:07;100551.13;;;19.63;51.72
39449;BME280;25151;45.566;9.382;2023-02-19T01:29:10;100544.38;;;19.60;51.75
39449;BME280;25151;45.566;9.382;2023-02-19T01:32:13;100548.78;;;19.61;51.65
39449;BME280;25151;45.566;9.382;2023-02-19T01:35:16;100544.38;;;19.60;51.74
39449;BME280;25151;45.566;9.382;2023-02-19T01:38:20;100548.38;;;19.59;51.71
39449;BME280;25151;45.566;9.382;2023-02-19T01:41:24;100537.19;;;19.59;51.63
39449;BME280;25151;45.566;9.382;2023-02-19T01:47:30;100524.41;;;19.58;51.67
39449;BME280;25151;45.566;9.382;2023-02-19T01:50:37;100519.66;;;19.55;51.78
39449;BME280;25151;45.566;9.382;2023-02-19T01:53:46;100516.47;;;19.57;51.60
39449;BME280;25151;45.566;9.382;2023-02-19T01:56:53;100522.84;;;19.57;51.81
39449;BME280;25151;45.566;9.382;2023-02-19T02:00:00;100514.84;;;19.56;51.79
39449;BME280;25151;45.566;9.382;2023-02-19T02:03:04;100517.31;;;19.54;51.76
39449;BME280;25151;45.566;9.382;2023-02-19T02:09:17;100508.47;;;19.55;51.87
39449;BME280;25151;45.566;9.382;2023-02-19T02:12:37;100503.75;;;19.52;51.94
39449;BME280;25151;45.566;9.382;2023-02-19T02:19:30;100496.16;;;19.53;51.84
39449;BME280;25151;45.566;9.382;2023-02-19T02:29:31;100493.41;;;19.49;51.59
39449;BME280;25151;45.566;9.382;2023-02-19T02:32:49;100493.81;;;19.48;51.83
39449;BME280;25151;45.566;9.382;2023-02-19T02:36:16;100492.69;;;19.45;51.90
39449;BME280;25151;45.566;9.382;2023-02-19T02:39:21;100485.84;;;19.46;51.96
39449;BME280;25151;45.566;9.382;2023-02-19T02:42:23;100489.44;;;19.47;51.98
39449;BME280;25151;45.566;9.382;2023-02-19T02:45:30;100478.69;;;19.45;52.01
39449;BME280;25151;45.566;9.382;2023-02-19T02:48:56;100473.09;;;19.45;52.06
39449;BME280;25151;45.566;9.382;2023-02-19T02:51:59;100469.13;;;19.42;51.84
39449;BME280;25151;45.566;9.382;2023-02-19T02:55:21;100471.16;;;19.42;51.97
39449;BME280;25151;45.566;9.382;2023-02-19T02:58:24;100465.56;;;19.42;51.93
39449;BME280;25151;45.566;9.382;2023-02-19T03:01:32;100461.97;;;19.41;52.13
39449;BME280;25151;45.566;9.382;2023-02-19T03:05:06;100459.19;;;19.41;51.87
39449;BME280;25151;45.566;9.382;2023-02-19T03:08:39;100458.78;;;19.39;52.09
39449;BME280;25151;45.566;9.382;2023-02-19T03:11:45;100458.78;;;19.39;51.97
39449;BME280;25151;45.566;9.382;2023-02-19T03:15:08;100460.03;;;19.38;51.94
39449;BME280;25151;45.566;9.382;2023-02-19T03:18:31;100459.22;;;19.38;52.07
39449;BME280;25151;45.566;9.382;2023-02-19T03:21:58;100466.41;;;19.39;52.12
39449;BME280;25151;45.566;9.382;2023-02-19T03:25:10;100467.63;;;19.38;52.30
39449;BME280;25151;45.566;9.382;2023-02-19T03:28:34;100459.22;;;19.38;52.22
39449;BME280;25151;45.566;9.382;2023-02-19T03:32:07;100455.72;;;19.34;52.09
39449;BME280;25151;45.566;9.382;2023-02-19T03:35:16;100461.25;;;19.37;51.99
39449;BME280;25151;45.566;9.382;2023-02-19T03:38:43;100456.50;;;19.34;52.11
39449;BME280;25151;45.566;9.382;2023-02-19T03:42:06;100453.25;;;19.36;52.10
39449;BME280;25151;45.566;9.382;2023-02-19T03:45:30;100457.28;;;19.35;52.19
39449;BME280;25151;45.566;9.382;2023-02-19T03:48:37;100460.91;;;19.32;52.06
39449;BME280;25151;45.566;9.382;2023-02-19T03:51:50;100468.91;;;19.33;52.35
39449;BME280;25151;45.566;9.382;2023-02-19T03:58:38;100480.09;;;19.33;52.22
39449;BME280;25151;45.566;9.382;2023-02-19T04:01:45;100477.69;;;19.32;52.24
39449;BME280;25151;45.566;9.382;2023-02-19T04:04:51;100477.69;;;19.32;52.15
39449;BME280;25151;45.566;9.382;2023-02-19T04:07:58;100477.69;;;19.32;52.48
39449;BME280;25151;45.566;9.382;2023-02-19T04:11:05;100476.56;;;19.29;52.17
39449;BME280;25151;45.566;9.382;2023-02-19T04:14:19;100481.72;;;19.31;52.17
39449;BME280;25151;45.566;9.382;2023-02-19T04:17:30;100478.91;;;19.31;52.13
39449;BME280;25151;45.566;9.382;2023-02-19T04:20:35;100473.31;;;19.31;52.17
39449;BME280;25151;45.566;9.382;2023-02-19T04:23:42;100466.16;;;19.30;52.40
39449;BME280;25151;45.566;9.382;2023-02-19T04:26:45;100470.19;;;19.29;52.09
39449;BME280;25151;45.566;9.382;2023-02-19T04:29:48;100484.16;;;19.29;52.08
39449;BME280;25151;45.566;9.382;2023-02-19T04:32:50;100474.16;;;19.28;52.21
39449;BME280;25151;45.566;9.382;2023-02-19T04:35:52;100469.81;;;19.27;52.32
39449;BME280;25151;45.566;9.382;2023-02-19T04:38:54;100475.41;;;19.27;52.23
39449;BME280;25151;45.566;9.382;2023-02-19T04:41:56;100475.03;;;19.25;52.11
39449;BME280;25151;45.566;9.382;2023-02-19T04:44:58;100473.03;;;19.25;52.25
39449;BME280;25151;45.566;9.382;2023-02-19T04:48:01;100490.16;;;19.27;52.51
39449;BME280;25151;45.566;9.382;2023-02-19T04:51:07;100478.63;;;19.25;52.08
39449;BME280;25151;45.566;9.382;2023-02-19T04:54:10;100461.91;;;19.22;52.18
39449;BME280;25151;45.566;9.382;2023-02-19T04:57:11;100467.84;;;19.24;52.15
39449;BME280;25151;45.566;9.382;2023-02-19T05:00:13;100467.06;;;19.23;52.18
39449;BME280;25151;45.566;9.382;2023-02-19T05:03:17;100465.84;;;19.24;52.21
39449;BME280;25151;45.566;9.382;2023-02-19T05:06:19;100465.06;;;19.24;52.26
39449;BME280;25151;45.566;9.382;2023-02-19T05:09:23;100473.09;;;19.22;52.11
39449;BME280;25151;45.566;9.382;2023-02-19T05:12:28;100479.03;;;19.24;52.25
39449;BME280;25151;45.566;9.382;2023-02-19T05:15:32;100469.06;;;19.23;52.23
39449;BME280;25151;45.566;9.382;2023-02-19T05:18:35;100474.66;;;19.23;52.21
39449;BME280;25151;45.566;9.382;2023-02-19T05:21:38;100461.13;;;19.21;52.11
39449;BME280;25151;45.566;9.382;2023-02-19T05:24:42;100474.31;;;19.21;52.25
39449;BME280;25151;45.566;9.382;2023-02-19T05:27:45;100461.13;;;19.21;52.18
39449;BME280;25151;45.566;9.382;2023-02-19T05:30:50;100457.16;;;19.19;52.20
39449;BME280;25151;45.566;9.382;2023-02-19T05:33:55;100469.13;;;19.19;52.13
39449;BME280;25151;45.566;9.382;2023-02-19T05:36:56;100476.72;;;19.19;52.15
39449;BME280;25151;45.566;9.382;2023-02-19T05:39:58;100468.34;;;19.19;52.15
39449;BME280;25151;45.566;9.382;2023-02-19T05:43:01;100475.56;;;19.16;52.21
39449;BME280;25151;45.566;9.382;2023-02-19T05:46:06;100480.75;;;19.17;52.25
39449;BME280;25151;45.566;9.382;2023-02-19T05:49:09;100469.19;;;19.15;52.17
39449;BME280;25151;45.566;9.382;2023-02-19T05:52:12;100461.16;;;19.17;52.23
39449;BME280;25151;45.566;9.382;2023-02-19T05:55:14;100456.81;;;19.16;52.16
39449;BME280;25151;45.566;9.382;2023-02-19T05:58:17;100449.19;;;19.17;52.14
39449;BME280;25151;45.566;9.382;2023-02-19T06:01:21;100438.06;;;19.13;52.11
39449;BME280;25151;45.566;9.382;2023-02-19T06:04:23;100450.84;;;19.14;52.12
39449;BME280;25151;45.566;9.382;2023-02-19T06:07:26;100450.03;;;19.14;52.09
39449;BME280;25151;45.566;9.382;2023-02-19T06:10:30;100454.41;;;19.15;52.21
39449;BME280;25151;45.566;9.382;2023-02-19T06:13:34;100445.25;;;19.14;52.11
39449;BME280;25151;45.566;9.382;2023-02-19T06:16:37;100444.03;;;19.15;52.26
39449;BME280;25151;45.566;9.382;2023-02-19T06:19:40;100449.25;;;19.13;52.28
39449;BME280;25151;45.566;9.382;2023-02-19T06:22:43;100462.00;;;19.14;52.27
39449;BME280;25151;45.566;9.382;2023-02-19T06:25:47;100464.47;;;19.12;52.25
39449;BME280;25151;45.566;9.382;2023-02-19T06:28:51;100464.47;;;19.12;52.22
39449;BME280;25151;45.566;9.382;2023-02-19T06:31:53;100470.44;;;19.11;52.18
39449;BME280;25151;45.566;9.382;2023-02-19T06:34:55;100488.41;;;19.13;52.13
39449;BME280;25151;45.566;9.382;2023-02-19T06:37:59;100474.03;;;19.11;52.26
39449;BME280;25151;45.566;9.382;2023-02-19T06:41:04;100461.28;;;19.10;52.20
39449;BME280;25151;45.566;9.382;2023-02-19T06:44:07;100466.03;;;19.13;52.24
39449;BME280;25151;45.566;9.382;2023-02-19T06:47:11;100458.50;;;19.10;52.15
39449;BME280;25151;45.566;9.382;2023-02-19T06:50:13;100466.03;;;19.13;52.18
39449;BME280;25151;45.566;9.382;2023-02-19T06:53:17;100467.59;;;19.14;51.97
39449;BME280;25151;45.566;9.382;2023-02-19T06:56:24;100463.53;;;19.19;52.27
39449;BME280;25151;45.566;9.382;2023-02-19T06:59:26;100468.34;;;19.19;52.15
39449;BME280;25151;45.566;9.382;2023-02-19T07:02:29;100473.09;;;19.22;51.93
39449;BME280;25151;45.566;9.382;2023-02-19T07:05:31;100470.59;;;19.27;52.01
39449;BME280;25151;45.566;9.382;2023-02-19T07:08:34;100463.38;;;19.30;52.07
39449;BME280;25151;45.566;9.382;2023-02-19T07:11:37;100448.03;;;19.38;51.77
39449;BME280;25151;45.566;9.382;2023-02-19T07:14:39;100451.19;;;19.40;51.78
39449;BME280;25151;45.566;9.382;2023-02-19T07:17:41;100454.25;;;19.49;51.74
39449;BME280;25151;45.566;9.382;2023-02-19T07:20:43;100455.69;;;19.57;51.57
39449;BME280;25151;45.566;9.382;2023-02-19T07:23:44;100462.41;;;19.63;51.67
39449;BME280;25151;45.566;9.382;2023-02-19T07:26:45;100465.06;;;19.71;51.45
39449;BME280;25151;45.566;9.382;2023-02-19T07:29:46;100464.94;;;19.78;51.33
39449;BME280;25151;45.566;9.382;2023-02-19T07:32:46;100456.03;;;19.83;51.30
39449;BME280;25151;45.566;9.382;2023-02-19T07:35:48;100447.97;;;19.88;51.37
39449;BME280;25151;45.566;9.382;2023-02-19T07:38:54;100456.63;;;19.94;51.16
39449;BME280;25151;45.566;9.382;2023-02-19T07:41:56;100449.34;;;20.00;51.46
39449;BME280;25151;45.566;9.382;2023-02-19T07:44:57;100434.03;;;20.05;51.02
39449;BME280;25151;45.566;9.382;2023-02-19T07:47:58;100435.53;;;20.09;51.21
39449;BME280;25151;45.566;9.382;2023-02-19T07:51:01;100425.84;;;20.14;50.84
39449;BME280;25151;45.566;9.382;2023-02-19T07:54:02;100449.75;;;20.19;51.03
39449;BME280;25151;45.566;9.382;2023-02-19T07:57:03;100457.72;;;20.20;50.82
39449;BME280;25151;45.566;9.382;2023-02-19T08:00:06;100464.47;;;20.23;50.70
39449;BME280;25151;45.566;9.382;2023-02-19T08:03:07;100456.44;;;20.25;50.61
39449;BME280;25151;45.566;9.382;2023-02-19T08:06:09;100451.19;;;20.27;50.60
39449;BME280;25151;45.566;9.382;2023-02-19T08:09:13;100464.75;;;20.28;50.46
39449;BME280;25151;45.566;9.382;2023-02-19T08:12:14;100448.75;;;20.29;50.67
39449;BME280;25151;45.566;9.382;2023-02-19T08:15:34;100461.53;;;20.30;50.67
39449;BME280;25151;45.566;9.382;2023-02-19T08:18:35;100449.47;;;20.33;50.56
39449;BME280;25151;45.566;9.382;2023-02-19T08:21:36;100454.13;;;20.39;50.27
39449;BME280;25151;45.566;9.382;2023-02-19T08:24:37;100451.75;;;20.38;50.51
39449;BME280;25151;45.566;9.382;2023-02-19T08:27:42;100445.72;;;20.39;50.38
39449;BME280;25151;45.566;9.382;2023-02-19T08:30:45;100444.50;;;20.41;50.44
39449;BME280;25151;45.566;9.382;2023-02-19T08:33:46;100443.72;;;20.40;50.45
39449;BME280;25151;45.566;9.382;2023-02-19T08:36:47;100450.09;;;20.41;50.32
39449;BME280;25151;45.566;9.382;2023-02-19T08:39:47;100450.88;;;20.41;50.44
39449;BME280;25151;45.566;9.382;2023-02-19T08:42:49;100452.47;;;20.42;50.49
39449;BME280;25151;45.566;9.382;2023-02-19T08:45:51;100445.28;;;20.41;50.39
39449;BME280;25151;45.566;9.382;2023-02-19T08:48:53;100445.28;;;20.41;50.69
39449;BME280;25151;45.566;9.382;2023-02-19T08:51:54;100441.25;;;20.42;50.54
39449;BME280;25151;45.566;9.382;2023-02-19T08:54:55;100430.03;;;20.42;50.35
39449;BME280;25151;45.566;9.382;2023-02-19T08:57:56;100434.44;;;20.43;50.60
39449;BME280;25151;45.566;9.382;2023-02-19T09:00:57;100444.84;;;20.43;50.29
39449;BME280;25151;45.566;9.382;2023-02-19T09:03:58;100435.66;;;20.42;50.75
39449;BME280;25151;45.566;9.382;2023-02-19T09:06:59;100430.03;;;20.42;50.70
39449;BME280;25151;45.566;9.382;2023-02-19T09:10:00;100429.25;;;20.42;50.61
39449;BME280;25151;45.566;9.382;2023-02-19T09:13:01;100428.47;;;20.41;50.72
39449;BME280;25151;45.566;9.382;2023-02-19T09:16:03;100424.44;;;20.42;50.70
39449;BME280;25151;45.566;9.382;2023-02-19T09:19:04;100430.03;;;20.42;50.61
39449;BME280;25151;45.566;9.382;2023-02-19T09:22:06;100426.47;;;20.42;50.47
39449;BME280;25151;45.566;9.382;2023-02-19T09:25:07;100445.28;;;20.41;50.75
39449;BME280;25151;45.566;9.382;2023-02-19T09:28:08;100446.06;;;20.42;50.64
39449;BME280;25151;45.566;9.382;2023-02-19T09:31:12;100435.66;;;20.42;50.83
39449;BME280;25151;45.566;9.382;2023-02-19T09:34:13;100439.69;;;20.41;51.02
39449;BME280;25151;45.566;9.382;2023-02-19T09:37:13;100434.88;;;20.42;50.86
39449;BME280;25151;45.566;9.382;2023-02-19T09:40:18;100434.06;;;20.41;50.55
39449;BME280;25151;45.566;9.382;2023-02-19T09:43:21;100430.91;;;20.39;50.57
39449;BME280;25151;45.566;9.382;2023-02-19T09:49:38;100432.06;;;20.42;50.69
39449;BME280;25151;45.566;9.382;2023-02-19T09:52:46;100431.28;;;20.41;50.66
39449;BME280;25151;45.566;9.382;2023-02-19T09:55:49;100435.66;;;20.42;50.92
39449;BME280;25151;45.566;9.382;2023-02-19T09:58:54;100435.66;;;20.42;50.82
39449;BME280;25151;45.566;9.382;2023-02-19T10:02:04;100432.00;;;20.45;50.75
39449;BME280;25151;45.566;9.382;2023-02-19T10:05:13;100433.63;;;20.43;50.97
39449;BME280;25151;45.566;9.382;2023-02-19T10:08:19;100428.47;;;20.41;50.83
39449;BME280;25151;45.566;9.382;2023-02-19T10:11:22;100430.50;;;20.41;51.11
39449;BME280;25151;45.566;9.382;2023-02-19T10:14:45;100432.50;;;20.40;50.68
39449;BME280;25151;45.566;9.382;2023-02-19T10:17:47;100426.91;;;20.40;50.82
39449;BME280;25151;45.566;9.382;2023-02-19T10:20:50;100421.31;;;20.40;50.87
39449;BME280;25151;45.566;9.382;2023-02-19T10:24:01;100420.53;;;20.39;50.86
39449;BME280;25151;45.566;9.382;2023-02-19T10:27:02;100425.31;;;20.39;51.01
39449;BME280;25151;45.566;9.382;2023-02-19T10:30:04;100424.09;;;20.40;50.74
39449;BME280;25151;45.566;9.382;2023-02-19T10:33:13;100429.34;;;20.38;50.75
39449;BME280;25151;45.566;9.382;2023-02-19T10:36:35;100429.72;;;20.40;50.86
39449;BME280;25151;45.566;9.382;2023-02-19T10:39:42;100438.13;;;20.40;51.08
39449;BME280;25151;45.566;9.382;2023-02-19T10:42:49;100431.72;;;20.39;50.86
39449;BME280;25151;45.566;9.382;2023-02-19T10:45:50;100422.88;;;20.41;51.08
39449;BME280;25151;45.566;9.382;2023-02-19T10:48:54;100417.28;;;20.41;51.27
39449;BME280;25151;45.566;9.382;2023-02-19T10:51:59;100418.50;;;20.40;50.97
39449;BME280;25151;45.566;9.382;2023-02-19T10:58:24;100418.06;;;20.42;51.30
39449;BME280;25151;45.566;9.382;2023-02-19T11:01:28;100418.84;;;20.42;51.34
39449;BME280;25151;45.566;9.382;2023-02-19T11:04:31;100417.66;;;20.43;51.26
39449;BME280;25151;45.566;9.382;2023-02-19T11:07:47;100417.28;;;20.41;51.48
39449;BME280;25151;45.566;9.382;2023-02-19T11:10:49;100394.94;;;20.37;51.32
39449;BME280;25151;45.566;9.382;2023-02-19T11:13:50;100398.53;;;20.38;51.38
39449;BME280;25151;45.566;9.382;2023-02-19T11:16:56;100388.56;;;20.37;51.42
39449;BME280;25151;45.566;9.382;2023-02-19T11:20:05;100379.38;;;20.36;51.35
39449;BME280;25151;45.566;9.382;2023-02-19T11:23:16;100376.56;;;20.36;51.38
39449;BME280;25151;45.566;9.382;2023-02-19T11:26:21;100376.97;;;20.35;51.57
39449;BME280;25151;45.566;9.382;2023-02-19T11:29:23;100370.19;;;20.36;51.76
39449;BME280;25151;45.566;9.382;2023-02-19T11:32:29;100367.72;;;20.38;51.34
39449;BME280;25151;45.566;9.382;2023-02-19T11:35:30;100364.56;;;20.36;51.44
39449;BME280;25151;45.566;9.382;2023-02-19T11:38:31;100352.59;;;20.35;51.51
39449;BME280;25151;45.566;9.382;2023-02-19T12:18:46;100289.22;;;20.42;51.63
39449;BME280;25151;45.566;9.382;2023-02-19T12:22:43;100288.34;;;20.45;51.54
39449;BME280;25151;45.566;9.382;2023-02-19T12:25:46;100280.72;;;20.45;51.22
39449;BME280;25151;45.566;9.382;2023-02-19T12:29:10;100281.16;;;20.44;51.65
39449;BME280;25151;45.566;9.382;2023-02-19T12:36:02;100267.59;;;20.42;51.42
39449;BME280;25151;45.566;9.382;2023-02-19T12:39:16;100269.19;;;20.43;51.41
39449;BME280;25151;45.566;9.382;2023-02-19T12:52:21;100241.16;;;20.43;51.68
39449;BME280;25151;45.566;9.382;2023-02-19T12:55:40;100238.69;;;20.45;51.75
39449;BME280;25151;45.566;9.382;2023-02-19T12:59:28;100234.66;;;20.46;51.37
39449;BME280;25151;45.566;9.382;2023-02-19T13:05:54;100222.63;;;20.49;51.49
39449;BME280;25151;45.566;9.382;2023-02-19T13:12:50;100199.34;;;20.52;51.75
39449;BME280;25151;45.566;9.382;2023-02-19T13:16:01;100192.16;;;20.51;51.81
39449;BME280;25151;45.566;9.382;2023-02-19T13:19:08;100202.13;;;20.52;51.53
39449;BME280;25151;45.566;9.382;2023-02-19T13:22:38;100202.84;;;20.56;51.84
39449;BME280;25151;45.566;9.382;2023-02-19T13:30:03;100183.22;;;20.56;51.70
39449;BME280;25151;45.566;9.382;2023-02-19T13:36:29;100171.22;;;20.56;51.89
39449;BME280;25151;45.566;9.382;2023-02-19T13:39:30;100170.78;;;20.57;51.90
39449;BME280;25151;45.566;9.382;2023-02-19T13:42:35;100169.91;;;20.60;51.91
39449;BME280;25151;45.566;9.382;2023-02-19T13:45:42;100176.28;;;20.61;51.74
39449;BME280;25151;45.566;9.382;2023-02-19T13:48:46;100176.28;;;20.61;52.01
39449;BME280;25151;45.566;9.382;2023-02-19T13:52:32;100168.66;;;20.61;51.71
39449;BME280;25151;45.566;9.382;2023-02-19T14:02:33;100156.59;;;20.65;51.75
39449;BME280;25151;45.566;9.382;2023-02-19T14:06:03;100152.22;;;20.63;51.61
39449;BME280;25151;45.566;9.382;2023-02-19T14:12:49;100150.28;;;20.60;51.95
39449;BME280;25151;45.566;9.382;2023-02-19T14:15:57;100148.63;;;20.63;51.90
39449;BME280;25151;45.566;9.382;2023-02-19T14:18:57;100131.56;;;20.57;51.79
39449;BME280;25151;45.566;9.382;2023-02-19T14:21:59;100135.06;;;20.61;52.05
39449;BME280;25151;45.566;9.382;2023-02-19T14:25:00;100142.22;;;20.62;51.71
39449;BME280;25151;45.566;9.382;2023-02-19T14:31:43;100131.00;;;20.62;51.78
39449;BME280;25151;45.566;9.382;2023-02-19T14:34:45;100130.69;;;20.60;51.94
39449;BME280;25151;45.566;9.382;2023-02-19T14:37:48;100129.44;;;20.61;51.84
39449;BME280;25151;45.566;9.382;2023-02-19T14:40:51;100138.63;;;20.62;51.85
39449;BME280;25151;45.566;9.382;2023-02-19T14:43:55;100143.03;;;20.63;51.94
39449;BME280;25151;45.566;9.382;2023-02-19T14:47:27;100135.06;;;20.61;51.86
39449;BME280;25151;45.566;9.382;2023-02-19T14:50:35;100135.06;;;20.61;51.90
39449;BME280;25151;45.566;9.382;2023-02-19T14:53:40;100131.91;;;20.59;52.19
39449;BME280;25151;45.566;9.382;2023-02-19T14:56:45;100138.31;;;20.60;52.03
39449;BME280;25151;45.566;9.382;2023-02-19T14:59:59;100130.69;;;20.60;52.25
39449;BME280;25151;45.566;9.382;2023-02-19T15:03:20;100125.06;;;20.60;52.19
39449;BME280;25151;45.566;9.382;2023-02-19T15:06:27;100136.28;;;20.60;52.18
39449;BME280;25151;45.566;9.382;2023-02-19T15:09:34;100125.06;;;20.60;52.06
39449;BME280;25151;45.566;9.382;2023-02-19T15:12:45;100123.06;;;20.61;52.06
39449;BME280;25151;45.566;9.382;2023-02-19T15:15:50;100122.28;;;20.60;52.07
39449;BME280;25151;45.566;9.382;2023-02-19T15:18:56;100120.72;;;20.59;52.37
39449;BME280;25151;45.566;9.382;2023-02-19T15:21:58;100116.31;;;20.58;52.35
39449;BME280;25151;45.566;9.382;2023-02-19T15:25:03;100119.94;;;20.59;52.18
39449;BME280;25151;45.566;9.382;2023-02-19T15:31:23;100121.91;;;20.58;52.12
39449;BME280;25151;45.566;9.382;2023-02-19T15:34:26;100114.75;;;20.57;52.29
39449;BME280;25151;45.566;9.382;2023-02-19T15:37:32;100128.75;;;20.57;52.45
39449;BME280;25151;45.566;9.382;2023-02-19T15:40:35;100122.00;;;20.55;52.35
39449;BME280;25151;45.566;9.382;2023-02-19T15:43:43;100114.41;;;20.55;52.22
39449;BME280;25151;45.566;9.382;2023-02-19T15:46:50;100135.59;;;20.56;52.63
39449;BME280;25151;45.566;9.382;2023-02-19T15:50:13;100118.44;;;20.54;52.49
39449;BME280;25151;45.566;9.382;2023-02-19T15:53:17;100111.63;;;20.55;52.56
39449;BME280;25151;45.566;9.382;2023-02-19T15:56:29;100121.22;;;20.54;52.40
39449;BME280;25151;45.566;9.382;2023-02-19T15:59:37;100125.28;;;20.53;52.70
39449;BME280;25151;45.566;9.382;2023-02-19T16:02:43;100124.03;;;20.54;52.44
39449;BME280;25151;45.566;9.382;2023-02-19T16:05:45;100116.19;;;20.49;52.52
39449;BME280;25151;45.566;9.382;2023-02-19T16:09:02;100108.13;;;20.51;52.62
39449;BME280;25151;45.566;9.382;2023-02-19T16:12:24;100102.53;;;20.51;52.41
39449;BME280;25151;45.566;9.382;2023-02-19T16:15:29;100109.78;;;20.49;52.53
39449;BME280;25151;45.566;9.382;2023-02-19T16:18:31;100119.34;;;20.51;52.43
39449;BME280;25151;45.566;9.382;2023-02-19T16:21:33;100114.94;;;20.50;52.42
39449;BME280;25151;45.566;9.382;2023-02-19T16:24:39;100114.59;;;20.48;52.89
39449;BME280;25151;45.566;9.382;2023-02-19T16:27:41;100114.22;;;20.46;52.72
39449;BME280;25151;45.566;9.382;2023-02-19T16:30:43;100124.22;;;20.47;52.58
39449;BME280;25151;45.566;9.382;2023-02-19T16:33:45;100129.81;;;20.47;52.75
39449;BME280;25151;45.566;9.382;2023-02-19T16:36:47;100141.03;;;20.47;52.71
39449;BME280;25151;45.566;9.382;2023-02-19T16:40:04;100153.00;;;20.48;52.72
39449;BME280;25151;45.566;9.382;2023-02-19T16:43:30;100157.84;;;20.47;52.95
39449;BME280;25151;45.566;9.382;2023-02-19T16:46:37;100162.63;;;20.47;52.86
39449;BME280;25151;45.566;9.382;2023-02-19T16:49:40;100164.63;;;20.46;52.84
39449;BME280;25151;45.566;9.382;2023-02-19T16:52:57;100153.44;;;20.46;52.98
39449;BME280;25151;45.566;9.382;2023-02-19T16:55:59;100153.44;;;20.46;52.83
39449;BME280;25151;45.566;9.382;2023-02-19T17:02:37;100154.66;;;20.45;52.99
39449;BME280;25151;45.566;9.382;2023-02-19T17:05:38;100157.13;;;20.43;53.09
39449;BME280;25151;45.566;9.382;2023-02-19T17:08:41;100168.34;;;20.43;52.95
39449;BME280;25151;45.566;9.382;2023-02-19T17:11:45;100181.13;;;20.44;53.13
39449;BME280;25151;45.566;9.382;2023-02-19T17:15:07;100179.53;;;20.43;53.31
39449;BME280;25151;45.566;9.382;2023-02-19T17:18:18;100199.94;;;20.44;53.13
39449;BME280;25151;45.566;9.382;2023-02-19T17:21:20;100206.31;;;20.44;53.27
39449;BME280;25151;45.566;9.382;2023-02-19T17:24:23;100210.34;;;20.43;53.11
39449;BME280;25151;45.566;9.382;2023-02-19T17:27:25;100227.16;;;20.43;53.19
39449;BME280;25151;45.566;9.382;2023-02-19T17:30:35;100224.38;;;20.43;53.11
39449;BME280;25151;45.566;9.382;2023-02-19T17:33:39;100212.34;;;20.43;53.09
39449;BME280;25151;45.566;9.382;2023-02-19T17:36:40;100213.25;;;20.39;53.30
39449;BME280;25151;45.566;9.382;2023-02-19T17:39:44;100223.22;;;20.41;53.19
39449;BME280;25151;45.566;9.382;2023-02-19T17:42:45;100224.78;;;20.42;53.25
39449;BME280;25151;45.566;9.382;2023-02-19T17:45:47;100235.19;;;20.41;53.32
39449;BME280;25151;45.566;9.382;2023-02-19T17:48:49;100249.22;;;20.41;53.20
39449;BME280;25151;45.566;9.382;2023-02-19T17:51:50;100252.78;;;20.42;53.35
39449;BME280;25151;45.566;9.382;2023-02-19T17:54:51;100254.44;;;20.39;53.29
39449;BME280;25151;45.566;9.382;2023-02-19T17:57:54;100256.03;;;20.40;53.06
39449;BME280;25151;45.566;9.382;2023-02-19T18:00:55;100245.34;;;20.35;53.27
39449;BME280;25151;45.566;9.382;2023-02-19T18:03:56;100251.84;;;20.32;52.91
39449;BME280;25151;45.566;9.382;2023-02-19T18:06:58;100250.25;;;20.31;53.00